Time;durP1;ratioP1;P1;durP2;ratioP2;P2;SDS_P1;SDS_P2;PMS_P1;PMS_P2;Temp;Humidity;BMP_temperature;BMP_pressure;BME280_temperature;BME280_humidity;BME280_pressure;Samples;Min_cycle;Max_cycle;Signal;HPM_P1;HPM_P2
2021/07/31 00:01:19;;;;;;;9.80;8.87;;;19.80;99.90;;;;;;5001748;28;20430;-60
2021/07/31 00:03:47;;;;;;;9.33;8.30;;;19.90;99.90;;;;;;5014116;28;20525;-60
2021/07/31 00:06:27;;;;;;;9.97;9.07;;;20.00;99.90;;;;;;5008877;28;20458;-59
2021/07/31 00:08:54;;;;;;;10.63;9.17;;;19.80;99.90;;;;;;5018905;28;20484;-60
2021/07/31 00:11:22;;;;;;;10.47;9.37;;;19.90;99.90;;;;;;5018674;28;20449;-59
2021/07/31 00:13:49;;;;;;;17.63;10.23;;;20.00;99.90;;;;;;5019059;28;20799;-58
2021/07/31 00:16:16;;;;;;;10.90;9.90;;;19.70;99.90;;;;;;5016539;28;20568;-59
2021/07/31 00:18:43;;;;;;;12.70;9.60;;;19.60;99.90;;;;;;5009088;28;20418;-59
2021/07/31 00:21:10;;;;;;;13.00;9.30;;;19.70;99.90;;;;;;5019145;28;20433;-59
2021/07/31 00:23:37;;;;;;;10.37;9.27;;;19.70;99.90;;;;;;4999533;28;20418;-59
2021/07/31 00:26:04;;;;;;;11.90;10.70;;;19.70;99.90;;;;;;5010711;28;20508;-59
2021/07/31 00:28:31;;;;;;;10.60;9.60;;;19.80;99.90;;;;;;5004786;28;20446;-61
2021/07/31 00:30:58;;;;;;;11.57;9.60;;;19.90;99.90;;;;;;5008674;28;20501;-60
2021/07/31 00:33:25;;;;;;;11.87;10.27;;;19.80;99.90;;;;;;4999435;28;20449;-59
2021/07/31 00:35:52;;;;;;;11.40;9.97;;;19.60;99.90;;;;;;5005107;28;20463;-59
2021/07/31 00:38:19;;;;;;;11.63;10.50;;;19.50;99.90;;;;;;5018375;28;20434;-59
2021/07/31 00:40:46;;;;;;;12.40;10.57;;;19.40;99.90;;;;;;5026698;28;20447;-59
2021/07/31 00:43:13;;;;;;;11.97;9.80;;;19.40;99.90;;;;;;5025061;28;20635;-59
2021/07/31 00:45:40;;;;;;;10.73;9.63;;;19.50;99.90;;;;;;5002664;28;20410;-59
2021/07/31 00:48:08;;;;;;;11.43;9.70;;;19.40;99.90;;;;;;5011044;28;20442;-59
2021/07/31 00:50:35;;;;;;;13.40;11.50;;;19.40;99.90;;;;;;5005776;28;20439;-59
2021/07/31 00:53:02;;;;;;;15.07;10.10;;;19.40;99.90;;;;;;5018575;28;20524;-58
2021/07/31 00:55:30;;;;;;;12.70;9.00;;;19.30;99.90;;;;;;5018067;28;20421;-59
2021/07/31 00:57:58;;;;;;;15.03;10.00;;;19.20;99.90;;;;;;5011544;28;20414;-59
2021/07/31 01:00:26;;;;;;;12.30;10.07;;;19.10;99.90;;;;;;5014027;28;20438;-59
2021/07/31 01:02:53;;;;;;;15.73;10.40;;;19.00;99.90;;;;;;5018074;28;20602;-59
2021/07/31 01:05:21;;;;;;;13.03;9.37;;;19.10;99.90;;;;;;5017623;28;20405;-60
2021/07/31 01:07:50;;;;;;;13.87;10.10;;;19.10;99.90;;;;;;5006385;28;20409;-59
2021/07/31 01:10:18;;;;;;;19.43;9.90;;;19.30;99.90;;;;;;5018136;28;20719;-59
2021/07/31 01:12:47;;;;;;;9.37;8.50;;;19.20;99.90;;;;;;5017319;28;20659;-59
2021/07/31 01:15:15;;;;;;;14.27;11.30;;;19.20;99.90;;;;;;5027557;28;20416;-59
2021/07/31 01:17:42;;;;;;;9.50;8.60;;;19.30;99.90;;;;;;5019254;28;20556;-60
2021/07/31 01:20:10;;;;;;;18.70;9.97;;;19.20;99.90;;;;;;5017693;28;20505;-59
2021/07/31 01:22:37;;;;;;;9.83;8.93;;;19.10;99.90;;;;;;5005802;28;20437;-59
2021/07/31 01:25:05;;;;;;;13.30;8.80;;;19.10;99.90;;;;;;4997322;28;20687;-58
2021/07/31 01:27:34;;;;;;;12.53;10.17;;;18.80;99.90;;;;;;4998323;28;20632;-58
2021/07/31 01:30:03;;;;;;;15.03;8.90;;;18.70;99.90;;;;;;5014468;28;20545;-59
2021/07/31 01:32:30;;;;;;;12.80;9.03;;;18.70;99.90;;;;;;5026987;28;20447;-58
2021/07/31 01:34:57;;;;;;;13.70;8.53;;;18.80;99.90;;;;;;5006227;28;20707;-58
2021/07/31 01:37:24;;;;;;;10.03;9.03;;;18.70;99.90;;;;;;4998179;28;20609;-59
2021/07/31 01:39:51;;;;;;;12.30;9.87;;;18.80;99.90;;;;;;4998221;28;20505;-59
2021/07/31 01:42:18;;;;;;;19.50;9.30;;;18.80;99.90;;;;;;4998199;28;20589;-59
2021/07/31 01:44:45;;;;;;;17.97;8.57;;;18.70;99.90;;;;;;5010275;28;20610;-58
2021/07/31 01:47:12;;;;;;;14.13;9.40;;;18.70;99.90;;;;;;5019000;28;22109;-59
2021/07/31 01:49:39;;;;;;;10.20;8.90;;;18.70;99.90;;;;;;5017676;28;20438;-60
2021/07/31 01:52:06;;;;;;;12.10;9.60;;;18.60;99.90;;;;;;5029162;28;20445;-59
2021/07/31 01:54:33;;;;;;;9.73;8.73;;;18.50;99.90;;;;;;5016342;28;20481;-59
2021/07/31 01:57:00;;;;;;;15.67;10.40;;;18.50;99.90;;;;;;5005858;28;20624;-59
2021/07/31 01:59:27;;;;;;;12.23;10.50;;;18.60;99.90;;;;;;5004543;28;20505;-60
2021/07/31 02:01:54;;;;;;;13.97;9.50;;;18.50;99.90;;;;;;4998939;28;20417;-59
2021/07/31 02:04:22;;;;;;;12.37;9.80;;;18.60;99.90;;;;;;5004898;28;20906;-58
2021/07/31 02:06:49;;;;;;;14.47;8.97;;;18.70;99.90;;;;;;5016930;28;20736;-59
2021/07/31 02:09:16;;;;;;;11.83;9.10;;;18.70;99.90;;;;;;5015802;28;20438;-58
2021/07/31 02:11:43;;;;;;;13.07;9.10;;;18.70;99.90;;;;;;5017235;28;20456;-57
2021/07/31 02:14:10;;;;;;;10.63;8.90;;;18.70;99.90;;;;;;5016071;28;20603;-56
2021/07/31 02:16:37;;;;;;;15.23;10.27;;;18.50;99.90;;;;;;5002272;28;20485;-57
2021/07/31 02:19:04;;;;;;;12.57;8.53;;;18.20;99.90;;;;;;5013702;28;20816;-59
2021/07/31 02:21:31;;;;;;;13.20;10.40;;;18.30;99.90;;;;;;5010567;28;20464;-60
2021/07/31 02:23:58;;;;;;;10.57;8.57;;;18.40;99.90;;;;;;5009097;28;20412;-59
2021/07/31 02:26:25;;;;;;;14.97;11.03;;;17.90;99.90;;;;;;5017119;28;20427;-60
2021/07/31 02:28:52;;;;;;;11.73;10.47;;;18.10;99.90;;;;;;5013659;28;20463;-60
2021/07/31 02:31:19;;;;;;;9.93;8.93;;;18.30;99.90;;;;;;5006723;28;20415;-59
2021/07/31 02:33:46;;;;;;;13.23;10.70;;;18.30;99.90;;;;;;5002511;28;20500;-59
2021/07/31 02:36:15;;;;;;;10.83;8.53;;;18.40;99.90;;;;;;5016674;28;20413;-59
2021/07/31 02:38:42;;;;;;;10.20;8.90;;;18.60;99.90;;;;;;5016880;28;20463;-59
2021/07/31 02:41:09;;;;;;;10.70;9.07;;;18.70;99.90;;;;;;5007892;28;20413;-61
2021/07/31 02:43:36;;;;;;;10.87;9.53;;;18.80;99.90;;;;;;5016510;28;20440;-60
2021/07/31 02:46:05;;;;;;;15.87;12.47;;;18.80;99.90;;;;;;5016570;28;20463;-59
2021/07/31 02:48:34;;;;;;;14.90;12.13;;;18.90;99.90;;;;;;5016658;28;20600;-58
2021/07/31 02:51:12;;;;;;;12.80;9.37;;;19.10;99.90;;;;;;5002982;28;20426;-60
2021/07/31 02:53:40;;;;;;;13.10;9.47;;;19.30;99.90;;;;;;5016772;28;20480;-60
2021/07/31 02:56:07;;;;;;;11.33;8.00;;;19.40;99.90;;;;;;5016356;28;20452;-59
2021/07/31 02:58:34;;;;;;;17.53;8.63;;;19.40;99.90;;;;;;5016979;28;20433;-60
2021/07/31 03:01:04;;;;;;;8.90;8.10;;;19.50;99.90;;;;;;5016850;28;20413;-60
2021/07/31 03:03:31;;;;;;;12.83;9.60;;;19.40;99.90;;;;;;5015895;28;20603;-60
2021/07/31 03:05:59;;;;;;;10.17;9.17;;;19.20;99.90;;;;;;5003574;28;20615;-60
2021/07/31 03:08:28;;;;;;;15.27;8.90;;;18.80;99.90;;;;;;5009616;28;20417;-60
2021/07/31 03:10:59;;;;;;;14.80;9.87;;;19.00;99.90;;;;;;5013184;28;20439;-59
2021/07/31 03:13:27;;;;;;;12.63;9.30;;;19.00;99.90;;;;;;5007556;28;20521;-59
2021/07/31 03:15:54;;;;;;;10.60;8.43;;;18.90;99.90;;;;;;5006366;28;20523;-59
2021/07/31 03:18:22;;;;;;;11.03;9.80;;;18.90;99.90;;;;;;5010142;28;20593;-59
2021/07/31 03:20:50;;;;;;;9.43;8.43;;;18.80;99.90;;;;;;5019780;28;20576;-59
2021/07/31 03:23:22;;;;;;;13.53;8.10;;;18.80;99.90;;;;;;5018675;28;20420;-59
2021/07/31 03:25:49;;;;;;;10.40;8.90;;;18.80;99.90;;;;;;5013144;28;20407;-60
2021/07/31 03:28:16;;;;;;;12.87;8.93;;;18.90;99.90;;;;;;5015413;28;20497;-60
2021/07/31 03:30:44;;;;;;;10.87;8.70;;;18.80;99.90;;;;;;5024178;28;20657;-59
2021/07/31 03:33:13;;;;;;;14.80;9.00;;;18.80;99.90;;;;;;5020160;28;20458;-59
2021/07/31 03:35:41;;;;;;;10.70;8.70;;;18.70;99.90;;;;;;5019354;28;20498;-60
2021/07/31 03:38:09;;;;;;;11.23;8.50;;;18.90;99.90;;;;;;5015513;28;20439;-62
2021/07/31 03:40:37;;;;;;;9.57;8.60;;;18.80;99.90;;;;;;5018630;28;20629;-59
2021/07/31 03:43:04;;;;;;;12.97;7.73;;;18.90;99.90;;;;;;5020185;28;20417;-60
2021/07/31 03:45:31;;;;;;;11.80;7.87;;;19.00;99.90;;;;;;5015936;28;20465;-59
2021/07/31 03:47:58;;;;;;;10.40;8.90;;;19.10;99.90;;;;;;5021462;28;20417;-59
2021/07/31 03:50:25;;;;;;;9.10;7.77;;;19.20;99.90;;;;;;5019834;28;20496;-58
2021/07/31 03:52:52;;;;;;;12.23;8.17;;;19.40;99.90;;;;;;5021136;28;20474;-58
2021/07/31 03:55:19;;;;;;;12.00;8.03;;;19.50;99.90;;;;;;5017250;28;20445;-59
2021/07/31 03:57:46;;;;;;;9.17;7.50;;;20.00;99.90;;;;;;5019650;28;20428;-59
2021/07/31 04:00:14;;;;;;;12.50;9.23;;;19.80;99.90;;;;;;5015376;28;20484;-59
2021/07/31 04:02:41;;;;;;;15.60;8.00;;;20.00;99.90;;;;;;5023994;28;20472;-59
2021/07/31 04:05:09;;;;;;;14.43;7.07;;;20.00;99.90;;;;;;5009771;28;20421;-60
2021/07/31 04:07:36;;;;;;;8.03;7.27;;;20.20;99.90;;;;;;5015179;28;20482;-61
2021/07/31 04:10:04;;;;;;;14.57;8.87;;;20.50;99.90;;;;;;5019504;28;20414;-59
2021/07/31 04:12:31;;;;;;;11.63;8.50;;;20.50;99.90;;;;;;5009190;28;20479;-59
2021/07/31 04:14:59;;;;;;;9.73;8.60;;;20.70;99.90;;;;;;5019220;28;20834;-61
2021/07/31 04:17:26;;;;;;;9.47;8.47;;;20.60;99.90;;;;;;5018763;28;20468;-61
2021/07/31 04:19:53;;;;;;;9.47;7.57;;;20.80;99.90;;;;;;5013859;28;21006;-60
2021/07/31 04:22:20;;;;;;;12.63;8.70;;;20.90;99.90;;;;;;5018584;28;20438;-60
2021/07/31 04:24:47;;;;;;;7.67;6.97;;;21.00;99.90;;;;;;5019492;28;20629;-59
2021/07/31 04:27:14;;;;;;;8.73;7.90;;;21.20;99.90;;;;;;5004065;28;20644;-59
2021/07/31 04:29:41;;;;;;;8.53;7.83;;;21.00;99.90;;;;;;5019250;28;20439;-60
2021/07/31 04:32:08;;;;;;;8.73;8.00;;;21.20;99.90;;;;;;5018968;28;20505;-61
2021/07/31 04:34:36;;;;;;;8.47;7.73;;;21.20;99.90;;;;;;5008594;28;20444;-59
2021/07/31 04:37:04;;;;;;;8.13;7.33;;;21.30;99.90;;;;;;4999239;28;20654;-59
2021/07/31 04:39:32;;;;;;;9.00;8.13;;;21.40;99.90;;;;;;5007875;28;20454;-60
2021/07/31 04:41:59;;;;;;;9.90;7.60;;;21.80;99.90;;;;;;5017463;28;20550;-60
2021/07/31 04:44:27;;;;;;;8.20;7.50;;;22.00;99.90;;;;;;5013995;28;20485;-60
2021/07/31 04:46:54;;;;;;;9.40;7.57;;;22.20;99.90;;;;;;5025051;28;20437;-60
2021/07/31 04:49:21;;;;;;;9.07;7.97;;;22.40;99.90;;;;;;5018688;28;20436;-59
2021/07/31 04:51:48;;;;;;;11.40;7.33;;;22.50;99.90;;;;;;5019156;28;20415;-61
2021/07/31 04:54:15;;;;;;;9.50;8.60;;;22.50;99.90;;;;;;5018072;28;20820;-61
2021/07/31 04:56:45;;;;;;;8.53;7.73;;;22.60;99.90;;;;;;5018683;28;20416;-59
2021/07/31 04:59:15;;;;;;;10.63;8.43;;;22.60;99.90;;;;;;5017716;28;20444;-59
2021/07/31 05:01:42;;;;;;;7.97;7.37;;;22.60;99.90;;;;;;5018430;28;20441;-59
2021/07/31 05:04:10;;;;;;;8.50;7.80;;;22.60;99.90;;;;;;5015039;28;20455;-60
2021/07/31 05:06:37;;;;;;;9.20;8.30;;;22.50;99.90;;;;;;5014652;28;20726;-58
2021/07/31 05:09:06;;;;;;;11.17;8.07;;;22.60;99.90;;;;;;5013301;28;20786;-60
2021/07/31 05:11:33;;;;;;;12.77;8.63;;;22.50;99.90;;;;;;5017908;28;20464;-59
2021/07/31 05:14:01;;;;;;;8.80;7.43;;;22.90;99.90;;;;;;5017694;28;20470;-60
2021/07/31 05:16:29;;;;;;;9.70;8.70;;;23.30;99.90;;;;;;5012773;28;20434;-60
2021/07/31 05:18:56;;;;;;;13.97;9.10;;;23.60;99.90;;;;;;5012741;28;20629;-61
2021/07/31 05:21:23;;;;;;;10.53;8.70;;;23.90;99.90;;;;;;5012809;28;20455;-60
2021/07/31 05:23:50;;;;;;;8.53;7.73;;;23.80;99.90;;;;;;5018120;28;20925;-60
2021/07/31 05:26:17;;;;;;;8.80;7.43;;;23.80;99.90;;;;;;5017569;28;20447;-60
2021/07/31 05:28:44;;;;;;;10.10;7.67;;;23.90;99.90;;;;;;5017834;28;20574;-61
2021/07/31 05:31:23;;;;;;;7.90;7.20;;;24.10;99.90;;;;;;5017515;28;20776;-60
2021/07/31 05:33:50;;;;;;;8.37;7.57;;;24.20;99.90;;;;;;5018288;28;20504;-60
2021/07/31 05:36:17;;;;;;;7.73;6.97;;;24.50;99.90;;;;;;5017321;28;20443;-60
2021/07/31 05:38:44;;;;;;;8.43;7.70;;;24.80;99.90;;;;;;5003597;28;20435;-59
2021/07/31 05:41:15;;;;;;;9.67;7.63;;;24.90;99.90;;;;;;5018044;28;20435;-60
2021/07/31 05:43:43;;;;;;;9.77;8.67;;;25.00;99.90;;;;;;5032217;28;20442;-59
2021/07/31 05:46:10;;;;;;;8.83;8.13;;;25.00;99.90;;;;;;5010274;28;20515;-60
2021/07/31 05:48:37;;;;;;;10.00;7.60;;;25.00;99.90;;;;;;4998221;28;20511;-60
2021/07/31 05:51:04;;;;;;;8.27;7.50;;;25.00;99.90;;;;;;5003710;28;20740;-59
2021/07/31 05:53:31;;;;;;;11.40;7.90;;;25.10;99.90;;;;;;5017620;28;20474;-59
2021/07/31 05:55:59;;;;;;;9.07;8.07;;;25.20;99.90;;;;;;5016490;28;20640;-59
2021/07/31 05:58:27;;;;;;;8.00;7.40;;;25.20;99.90;;;;;;5017187;28;20465;-61
2021/07/31 06:00:54;;;;;;;8.53;7.83;;;25.40;99.90;;;;;;5016745;28;20438;-61
2021/07/31 06:03:21;;;;;;;8.90;8.00;;;25.80;99.90;;;;;;5009840;28;20536;-60
2021/07/31 06:05:49;;;;;;;8.17;7.50;;;26.30;99.90;;;;;;5013068;28;20747;-59
2021/07/31 06:08:16;;;;;;;8.23;7.63;;;26.60;99.90;;;;;;5012620;28;20436;-59
2021/07/31 06:10:43;;;;;;;7.97;7.37;;;26.60;99.70;;;;;;5018254;28;20441;-59
2021/07/31 06:13:10;;;;;;;7.87;7.20;;;26.60;98.50;;;;;;5018132;28;20520;-60
2021/07/31 06:15:41;;;;;;;9.43;8.53;;;26.70;98.30;;;;;;5017736;28;20435;-60
2021/07/31 06:18:10;;;;;;;8.67;7.90;;;26.90;98.10;;;;;;5017922;28;20449;-60
2021/07/31 06:20:37;;;;;;;9.23;7.10;;;27.10;97.30;;;;;;5017673;28;20435;-60
2021/07/31 06:23:04;;;;;;;8.33;7.73;;;27.10;97.20;;;;;;5017727;28;20754;-59
2021/07/31 06:25:31;;;;;;;7.57;7.00;;;27.10;96.90;;;;;;5012676;28;20669;-59
2021/07/31 06:27:58;;;;;;;8.37;7.67;;;27.10;97.00;;;;;;5007731;28;20441;-59
2021/07/31 06:30:25;;;;;;;8.20;7.40;;;27.00;96.70;;;;;;5007711;28;20436;-60
2021/07/31 06:32:52;;;;;;;7.70;7.10;;;26.90;97.40;;;;;;5016607;28;20869;-59
2021/07/31 06:35:19;;;;;;;6.83;6.43;;;27.10;96.40;;;;;;5016407;28;20439;-61
2021/07/31 06:37:46;;;;;;;7.73;7.23;;;27.40;95.70;;;;;;5020196;28;20781;-59
2021/07/31 06:40:16;;;;;;;8.37;7.63;;;27.80;95.00;;;;;;5017416;28;20505;-59
2021/07/31 06:42:43;;;;;;;6.60;6.20;;;27.90;93.90;;;;;;5011001;28;20470;-60
2021/07/31 06:45:10;;;;;;;7.33;6.80;;;28.10;92.70;;;;;;5024422;28;20450;-60
2021/07/31 06:47:37;;;;;;;7.27;6.67;;;28.10;92.30;;;;;;5010641;28;20434;-59
2021/07/31 06:50:09;;;;;;;7.90;7.30;;;28.30;92.10;;;;;;5021830;28;20434;-60
2021/07/31 06:52:41;;;;;;;7.90;7.30;;;28.40;91.70;;;;;;5016736;28;20430;-60
2021/07/31 06:55:09;;;;;;;7.70;7.20;;;28.50;91.10;;;;;;5011136;28;20677;-60
2021/07/31 06:57:36;;;;;;;7.40;7.00;;;29.00;90.00;;;;;;5021230;28;20431;-59
2021/07/31 07:00:05;;;;;;;8.70;8.10;;;30.20;86.50;;;;;;5007090;28;20440;-60
2021/07/31 07:02:32;;;;;;;8.40;7.77;;;31.50;81.90;;;;;;5016828;28;20439;-58
2021/07/31 07:04:59;;;;;;;7.30;6.90;;;32.40;77.70;;;;;;5016719;28;20467;-59
2021/07/31 07:07:26;;;;;;;8.70;8.10;;;32.70;75.20;;;;;;5015784;28;20437;-58
2021/07/31 07:09:53;;;;;;;9.30;8.80;;;33.70;72.90;;;;;;5017186;28;20673;-58
2021/07/31 07:12:20;;;;;;;8.17;7.60;;;34.20;68.80;;;;;;5016971;28;20435;-58
2021/07/31 07:14:47;;;;;;;8.53;8.03;;;34.60;66.90;;;;;;5022575;28;20478;-60
2021/07/31 07:17:14;;;;;;;8.73;8.20;;;34.30;67.20;;;;;;5022392;28;20446;-60
2021/07/31 07:19:41;;;;;;;8.47;7.83;;;33.50;67.90;;;;;;5011961;28;20439;-60
2021/07/31 07:22:08;;;;;;;8.37;7.87;;;32.50;69.30;;;;;;5021892;28;20907;-60
2021/07/31 07:24:36;;;;;;;8.47;7.97;;;31.40;71.20;;;;;;5016742;28;20445;-59
2021/07/31 07:27:03;;;;;;;8.97;8.37;;;30.60;72.50;;;;;;5012330;28;20444;-58
2021/07/31 07:29:30;;;;;;;7.40;6.90;;;30.10;74.70;;;;;;4997634;28;20445;-58
2021/07/31 07:31:57;;;;;;;8.63;8.13;;;31.20;73.00;;;;;;5013475;28;20606;-58
2021/07/31 07:34:24;;;;;;;7.37;6.97;;;32.90;68.50;;;;;;5016392;28;20620;-58
2021/07/31 07:36:51;;;;;;;8.20;7.80;;;33.90;62.80;;;;;;5015526;28;20466;-60
2021/07/31 07:39:18;;;;;;;9.37;8.67;;;34.60;61.00;;;;;;4997554;28;20746;-59
2021/07/31 07:41:45;;;;;;;8.97;8.37;;;34.10;62.10;;;;;;5010211;28;20524;-58
2021/07/31 07:44:13;;;;;;;7.77;7.37;;;32.70;64.60;;;;;;4997269;28;20462;-58
2021/07/31 07:46:40;;;;;;;7.13;6.83;;;31.70;67.20;;;;;;5008693;28;20477;-58
2021/07/31 07:49:07;;;;;;;7.80;7.30;;;30.90;68.30;;;;;;5003159;28;20455;-58
2021/07/31 07:51:34;;;;;;;7.00;6.70;;;29.80;71.20;;;;;;5006741;28;20893;-59
2021/07/31 07:54:01;;;;;;;7.30;6.70;;;29.40;72.70;;;;;;5010186;28;20517;-59
2021/07/31 07:56:29;;;;;;;8.27;7.70;;;29.20;73.30;;;;;;4996785;28;20435;-60
2021/07/31 07:58:57;;;;;;;6.90;6.47;;;28.90;74.10;;;;;;5010936;28;20771;-60
2021/07/31 08:01:24;;;;;;;7.63;7.23;;;28.70;74.70;;;;;;5013126;28;20749;-59
2021/07/31 08:03:52;;;;;;;7.47;7.07;;;28.70;74.80;;;;;;5025142;28;20640;-59
2021/07/31 08:06:19;;;;;;;7.90;7.40;;;28.70;75.00;;;;;;5008423;28;20442;-59
2021/07/31 08:08:46;;;;;;;7.50;7.10;;;28.80;75.50;;;;;;5011721;28;20442;-59
2021/07/31 08:11:13;;;;;;;8.20;7.80;;;29.10;73.60;;;;;;5017148;28;20761;-59
2021/07/31 08:13:40;;;;;;;7.73;7.20;;;28.90;75.10;;;;;;5018168;28;20477;-59
2021/07/31 08:16:07;;;;;;;7.77;7.27;;;29.20;75.60;;;;;;5015957;28;20438;-60
2021/07/31 08:18:34;;;;;;;7.30;6.80;;;29.60;74.60;;;;;;5019546;28;20718;-58
2021/07/31 08:21:02;;;;;;;8.20;7.60;;;29.30;73.80;;;;;;5009852;28;20478;-61
2021/07/31 08:23:29;;;;;;;7.20;6.70;;;28.70;74.70;;;;;;5014448;28;20819;-60
2021/07/31 08:25:56;;;;;;;7.33;6.93;;;28.30;76.70;;;;;;5020131;28;20625;-59
2021/07/31 08:28:23;;;;;;;7.17;6.83;;;28.20;76.70;;;;;;5019180;28;20803;-59
2021/07/31 08:30:50;;;;;;;8.87;8.13;;;28.00;77.20;;;;;;5019263;28;20613;-59
2021/07/31 08:33:17;;;;;;;7.13;6.53;;;27.60;78.70;;;;;;5005758;28;20658;-60
2021/07/31 08:35:44;;;;;;;7.80;7.30;;;27.40;79.20;;;;;;5004909;28;20768;-60
2021/07/31 08:38:11;;;;;;;6.93;6.27;;;27.30;80.20;;;;;;5019246;28;20442;-61
2021/07/31 08:40:38;;;;;;;8.10;7.40;;;27.20;80.80;;;;;;5014911;28;20757;-60
2021/07/31 08:43:05;;;;;;;6.87;6.47;;;26.90;81.50;;;;;;4999814;28;20441;-59
2021/07/31 08:45:32;;;;;;;7.97;7.47;;;27.10;81.20;;;;;;5015039;28;20441;-60
2021/07/31 08:48:01;;;;;;;7.30;6.80;;;27.30;81.00;;;;;;5018207;28;20441;-60
2021/07/31 08:50:30;;;;;;;7.73;7.13;;;27.50;81.20;;;;;;5017739;28;20452;-59
2021/07/31 08:52:57;;;;;;;9.13;8.43;;;27.50;81.20;;;;;;4999358;28;20706;-59
2021/07/31 08:55:25;;;;;;;9.07;8.50;;;27.90;80.20;;;;;;5012229;28;20481;-59
2021/07/31 08:57:52;;;;;;;7.83;7.10;;;27.90;79.80;;;;;;5010453;28;20439;-59
2021/07/31 09:00:19;;;;;;;10.57;8.47;;;28.10;80.10;;;;;;5023008;28;20466;-60
2021/07/31 09:02:47;;;;;;;7.57;7.17;;;28.40;80.40;;;;;;5020139;28;20492;-59
2021/07/31 09:05:33;;;;;;;8.90;8.20;;;28.50;80.10;;;;;;5008787;28;20446;-59
2021/07/31 09:08:03;;;;;;;8.20;7.70;;;28.30;79.70;;;;;;5022921;28;20436;-60
2021/07/31 09:10:32;;;;;;;8.07;7.57;;;28.30;79.60;;;;;;5012486;28;20513;-59
2021/07/31 09:13:04;;;;;;;8.67;7.87;;;28.10;79.90;;;;;;5015941;28;20511;-59
2021/07/31 09:15:38;;;;;;;8.67;7.67;;;28.00;80.50;;;;;;5018416;28;20478;-59
2021/07/31 09:18:31;;;;;;;7.77;7.17;;;28.10;80.60;;;;;;5018675;28;20619;-61
2021/07/31 09:21:07;;;;;;;7.67;7.17;;;28.50;79.00;;;;;;5016889;28;20449;-59
2021/07/31 09:23:50;;;;;;;7.37;6.87;;;28.50;78.60;;;;;;5016995;28;20784;-59
2021/07/31 09:26:22;;;;;;;8.37;7.77;;;28.30;79.90;;;;;;5018358;28;20430;-59
2021/07/31 09:29:01;;;;;;;7.07;6.60;;;28.30;79.00;;;;;;5018591;28;20434;-59
2021/07/31 09:31:29;;;;;;;7.40;6.70;;;28.30;78.90;;;;;;5018188;28;20492;-59
2021/07/31 09:33:59;;;;;;;8.83;7.57;;;28.30;79.70;;;;;;5018101;28;20569;-59
2021/07/31 09:36:38;;;;;;;8.90;8.20;;;28.70;78.60;;;;;;5018486;28;20438;-59
2021/07/31 09:39:06;;;;;;;8.93;7.50;;;29.80;76.10;;;;;;5017103;28;20661;-59
2021/07/31 09:41:39;;;;;;;8.07;7.47;;;30.60;73.70;;;;;;5016689;28;20493;-59
2021/07/31 09:44:10;;;;;;;8.47;8.00;;;30.70;73.30;;;;;;5023528;28;20470;-58
2021/07/31 09:46:51;;;;;;;7.60;7.20;;;30.70;71.70;;;;;;5003569;28;20583;-59
2021/07/31 09:49:21;;;;;;;7.20;6.90;;;30.80;71.50;;;;;;5017496;28;20432;-60
2021/07/31 09:51:51;;;;;;;7.50;7.10;;;30.70;71.70;;;;;;5017057;28;20808;-60
2021/07/31 09:54:20;;;;;;;7.40;7.10;;;30.60;72.10;;;;;;5016840;28;20812;-60
2021/07/31 09:56:53;;;;;;;7.97;7.27;;;30.50;72.20;;;;;;5017588;28;20482;-59
2021/07/31 09:59:22;;;;;;;8.60;7.93;;;30.30;71.90;;;;;;5017815;28;20432;-59
2021/07/31 10:02:00;;;;;;;7.60;7.17;;;30.40;72.40;;;;;;5026762;28;20442;-58
2021/07/31 10:04:27;;;;;;;7.03;6.60;;;30.60;72.50;;;;;;5013014;28;20459;-59
2021/07/31 10:06:58;;;;;;;7.67;7.27;;;31.00;70.60;;;;;;5024739;28;20445;-60
2021/07/31 10:09:26;;;;;;;8.37;7.87;;;31.20;70.10;;;;;;5014429;28;20434;-59
2021/07/31 10:11:53;;;;;;;7.73;7.17;;;31.20;68.50;;;;;;5017812;28;20438;-58
2021/07/31 10:14:22;;;;;;;8.37;7.87;;;30.70;70.00;;;;;;5017192;28;20714;-59
2021/07/31 10:16:51;;;;;;;17.10;8.37;;;30.10;71.60;;;;;;5008559;28;20440;-59
2021/07/31 10:19:18;;;;;;;7.00;6.50;;;30.20;72.00;;;;;;5010121;28;20431;-59
2021/07/31 10:21:48;;;;;;;8.23;7.53;;;30.40;72.20;;;;;;5015698;28;20943;-59
2021/07/31 10:24:16;;;;;;;7.73;7.23;;;30.90;71.70;;;;;;5014009;28;20485;-59
2021/07/31 10:27:15;;;;;;;7.57;7.07;;;31.30;70.50;;;;;;5016091;28;20464;-59
2021/07/31 10:29:44;;;;;;;8.00;7.50;;;31.40;69.50;;;;;;5001775;28;20543;-59
2021/07/31 10:32:20;;;;;;;7.23;6.83;;;31.20;70.10;;;;;;5015392;28;20495;-60
2021/07/31 10:35:00;;;;;;;8.30;7.77;;;31.10;69.70;;;;;;5009277;28;20474;-59
2021/07/31 10:37:34;;;;;;;7.43;7.03;;;30.50;71.60;;;;;;5024948;28;20435;-60
2021/07/31 10:40:09;;;;;;;7.73;7.23;;;30.20;71.20;;;;;;5010126;28;20438;-58
2021/07/31 10:42:52;;;;;;;8.30;7.80;;;29.90;73.00;;;;;;5016542;28;20700;-60
2021/07/31 10:45:23;;;;;;;7.73;7.23;;;29.30;74.80;;;;;;5007870;28;20521;-60
2021/07/31 10:47:56;;;;;;;8.47;7.97;;;28.70;76.20;;;;;;5015780;28;20883;-59
2021/07/31 10:50:23;;;;;;;8.97;8.17;;;28.20;78.00;;;;;;5011910;28;20508;-60
2021/07/31 10:52:54;;;;;;;7.77;7.27;;;27.90;79.80;;;;;;5013321;28;20449;-59
2021/07/31 10:55:23;;;;;;;8.47;7.87;;;27.80;78.80;;;;;;5010028;28;20486;-59
2021/07/31 10:57:53;;;;;;;7.97;7.47;;;27.70;79.00;;;;;;5016111;28;20795;-59
2021/07/31 11:00:28;;;;;;;8.10;7.60;;;27.80;79.40;;;;;;5008281;28;20480;-60
2021/07/31 11:03:03;;;;;;;9.00;8.30;;;28.10;78.00;;;;;;5016568;28;20787;-59
2021/07/31 11:05:54;;;;;;;7.87;7.37;;;28.10;78.80;;;;;;5020243;28;20429;-59
2021/07/31 11:08:25;;;;;;;10.77;9.67;;;28.20;78.30;;;;;;5008008;28;20442;-59
2021/07/31 11:11:00;;;;;;;7.70;7.20;;;28.50;78.20;;;;;;5016235;28;20438;-59
2021/07/31 11:13:36;;;;;;;9.83;9.13;;;28.70;77.00;;;;;;5015726;28;20438;-59
2021/07/31 11:16:03;;;;;;;8.30;7.80;;;29.10;76.90;;;;;;5011477;28;20506;-58
2021/07/31 11:18:38;;;;;;;8.57;7.80;;;29.10;78.30;;;;;;5011225;28;20499;-59
2021/07/31 11:21:24;;;;;;;8.50;8.00;;;29.20;77.60;;;;;;5011304;28;20495;-59
2021/07/31 11:24:06;;;;;;;8.73;8.07;;;29.30;77.50;;;;;;5016839;28;20427;-59
2021/07/31 11:26:42;;;;;;;7.93;7.43;;;29.30;76.40;;;;;;5015500;28;20500;-60
2021/07/31 11:29:12;;;;;;;10.63;8.17;;;29.10;77.40;;;;;;5016603;28;20753;-59
2021/07/31 11:31:41;;;;;;;8.43;7.83;;;29.20;77.50;;;;;;5015953;28;20438;-60
2021/07/31 11:34:09;;;;;;;8.00;7.27;;;29.40;77.10;;;;;;5003338;28;20445;-59
2021/07/31 11:36:38;;;;;;;7.43;6.93;;;29.90;76.10;;;;;;5007797;28;20435;-59
2021/07/31 11:39:06;;;;;;;8.33;7.73;;;29.70;75.90;;;;;;5004155;28;20493;-61
2021/07/31 11:41:41;;;;;;;8.67;7.97;;;29.70;77.10;;;;;;5002156;28;20762;-60
2021/07/31 11:44:21;;;;;;;7.90;7.37;;;30.10;75.90;;;;;;5005125;28;20474;-60
2021/07/31 11:46:49;;;;;;;8.60;8.00;;;30.10;74.80;;;;;;5002110;28;20432;-59
2021/07/31 11:49:36;;;;;;;10.57;9.87;;;30.10;76.20;;;;;;5004724;28;20435;-60
2021/07/31 11:52:05;;;;;;;9.37;8.77;;;29.80;76.10;;;;;;5003725;28;20431;-60
2021/07/31 11:54:37;;;;;;;8.43;7.97;;;29.40;77.00;;;;;;5006604;28;20529;-59
2021/07/31 11:57:05;;;;;;;7.70;7.20;;;29.40;76.50;;;;;;5004434;28;20502;-59
2021/07/31 11:59:36;;;;;;;7.70;7.20;;;29.60;76.50;;;;;;5005855;28;20432;-59
2021/07/31 12:02:04;;;;;;;7.70;7.20;;;29.60;75.70;;;;;;5002185;28;20538;-59
2021/07/31 12:04:43;;;;;;;7.80;7.20;;;29.40;74.20;;;;;;5005165;28;20471;-60
2021/07/31 12:07:18;;;;;;;7.53;7.03;;;29.30;75.20;;;;;;5018634;28;20617;-60
2021/07/31 12:10:09;;;;;;;8.50;7.90;;;29.30;75.40;;;;;;5002976;28;20437;-59
2021/07/31 12:12:39;;;;;;;8.13;7.60;;;29.10;76.10;;;;;;5003324;28;20424;-59
2021/07/31 12:15:16;;;;;;;7.87;7.37;;;29.10;76.50;;;;;;5004054;28;20814;-59
2021/07/31 12:17:56;;;;;;;8.40;7.67;;;29.10;77.10;;;;;;5008496;28;20438;-59
2021/07/31 12:20:43;;;;;;;8.60;7.97;;;29.20;76.60;;;;;;5006049;28;20442;-59
2021/07/31 12:23:12;;;;;;;9.20;8.60;;;29.40;75.20;;;;;;5017065;28;20461;-59
2021/07/31 12:26:00;;;;;;;10.43;9.43;;;29.60;75.60;;;;;;5000658;28;20495;-59
2021/07/31 12:28:38;;;;;;;8.77;8.07;;;29.60;75.30;;;;;;5016216;28;20645;-60
2021/07/31 12:31:25;;;;;;;9.13;8.50;;;29.80;74.70;;;;;;5010757;28;20508;-59
2021/07/31 12:33:54;;;;;;;9.07;8.33;;;30.00;74.70;;;;;;5009043;28;20450;-59
2021/07/31 12:36:22;;;;;;;8.40;8.00;;;30.00;74.80;;;;;;5011409;28;20482;-60
2021/07/31 12:38:51;;;;;;;8.10;7.60;;;30.10;73.10;;;;;;5019527;28;20466;-59
2021/07/31 12:41:25;;;;;;;8.17;7.67;;;30.10;73.30;;;;;;5026292;28;20812;-59
2021/07/31 12:43:52;;;;;;;7.73;7.33;;;30.20;70.60;;;;;;5020037;28;20493;-59
2021/07/31 12:46:21;;;;;;;8.10;7.60;;;30.20;67.80;;;;;;5017320;28;20470;-59
2021/07/31 12:48:50;;;;;;;8.50;8.10;;;30.50;68.70;;;;;;5030174;28;20438;-59
2021/07/31 12:51:17;;;;;;;7.87;7.47;;;30.90;69.10;;;;;;5008212;28;20443;-59
2021/07/31 12:53:44;;;;;;;7.57;7.17;;;31.00;67.40;;;;;;5018784;28;20435;-60